createdAt,value
2022-11-17T00:00:23.660Z,6.68
2022-11-17T00:01:11.180Z,6.65
2022-11-17T00:01:58.168Z,6.66
2022-11-17T00:02:46.043Z,6.68
2022-11-17T00:03:33.582Z,6.77
2022-11-17T00:04:20.869Z,6.77
2022-11-17T00:05:08.171Z,6.78
2022-11-17T00:05:55.059Z,6.80
2022-11-17T00:06:42.097Z,6.84
2022-11-17T00:07:29.104Z,6.80
2022-11-17T00:08:16.011Z,6.77
2022-11-17T00:09:02.979Z,6.76
2022-11-17T00:09:49.804Z,6.75
2022-11-17T00:10:36.739Z,6.80
2022-11-17T00:11:23.700Z,6.73
2022-11-17T00:12:32.784Z,6.69
2022-11-17T00:13:38.608Z,6.67
2022-11-17T00:14:34.699Z,6.77
2022-11-17T00:15:21.590Z,6.86
2022-11-17T00:16:08.541Z,6.76
2022-11-17T00:16:55.397Z,6.73
2022-11-17T00:17:42.448Z,6.78
2022-11-17T00:18:55.370Z,6.87
2022-11-17T00:20:00.740Z,6.88
2022-11-17T00:21:06.249Z,6.87
2022-11-17T00:21:53.280Z,6.86
2022-11-17T00:22:40.173Z,6.91
2022-11-17T00:23:47.424Z,6.93
2022-11-17T00:24:34.770Z,6.92
2022-11-17T00:25:21.639Z,6.86
2022-11-17T00:26:08.609Z,6.84
2022-11-17T00:27:04.533Z,6.84
2022-11-17T00:27:51.660Z,6.87
2022-11-17T00:28:38.509Z,6.92
2022-11-17T00:29:25.522Z,6.92
2022-11-17T00:30:32.891Z,6.94
2022-11-17T00:31:38.555Z,6.95
2022-11-17T00:32:44.031Z,7.00
2022-11-17T00:33:49.543Z,6.99
2022-11-17T00:34:36.489Z,6.94
2022-11-17T00:35:23.340Z,6.87
2022-11-17T00:36:10.191Z,6.88
2022-11-17T00:36:57.469Z,6.96
2022-11-17T00:38:02.841Z,6.95
2022-11-17T00:38:49.639Z,6.89
2022-11-17T00:39:36.710Z,7.03
2022-11-17T00:40:23.620Z,6.98
2022-11-17T00:41:10.486Z,7.06
2022-11-17T00:41:57.591Z,7.05
2022-11-17T00:42:44.438Z,7.02
2022-11-17T00:43:31.296Z,7.02
2022-11-17T00:44:18.410Z,6.98
2022-11-17T00:45:06.146Z,6.95
2022-11-17T00:45:53.037Z,6.97
2022-11-17T00:46:40.314Z,7.01
2022-11-17T00:47:27.201Z,7.08
2022-11-17T00:48:14.129Z,7.10
2022-11-17T00:49:01.081Z,7.07
2022-11-17T00:49:48.012Z,7.07
2022-11-17T00:50:35.000Z,7.09
2022-11-17T00:51:22.035Z,7.09
2022-11-17T00:52:10.159Z,7.08
2022-11-17T00:52:57.011Z,7.09
2022-11-17T00:53:43.941Z,7.09
2022-11-17T00:54:31.068Z,7.11
2022-11-17T00:55:17.932Z,7.08
2022-11-17T00:56:05.008Z,7.04
2022-11-17T00:56:52.115Z,7.09
2022-11-17T00:57:39.000Z,7.08
2022-11-17T00:58:25.920Z,7.01
2022-11-17T00:59:12.870Z,7.01
2022-11-17T00:59:59.758Z,7.07
2022-11-17T01:00:51.741Z,7.06
2022-11-17T01:01:39.944Z,7.09
2022-11-17T01:02:26.980Z,7.04
2022-11-17T01:03:13.890Z,7.03
2022-11-17T01:04:04.640Z,7.02
2022-11-17T01:04:51.591Z,6.98
2022-11-17T01:05:38.431Z,6.94
2022-11-17T01:06:25.310Z,6.94
2022-11-17T01:07:12.296Z,6.93
2022-11-17T01:07:59.450Z,6.98
2022-11-17T01:08:46.767Z,6.93
2022-11-17T01:09:33.591Z,6.97
2022-11-17T01:10:20.450Z,6.96
2022-11-17T01:11:13.290Z,7.03
2022-11-17T01:12:00.158Z,7.00
2022-11-17T01:12:47.183Z,6.98
2022-11-17T01:13:34.549Z,6.95
2022-11-17T01:14:24.949Z,6.95
2022-11-17T01:15:11.832Z,6.95
2022-11-17T01:16:06.772Z,7.03
2022-11-17T01:16:54.163Z,6.92
2022-11-17T01:17:41.120Z,6.84
2022-11-17T01:18:28.712Z,6.86
2022-11-17T01:19:16.186Z,6.91
2022-11-17T01:20:03.920Z,6.94
2022-11-17T01:20:50.830Z,6.98
2022-11-17T01:21:38.251Z,7.02
2022-11-17T01:22:25.141Z,7.00
2022-11-17T01:23:12.041Z,6.97
2022-11-17T01:24:01.200Z,6.97
2022-11-17T01:24:48.112Z,6.94
2022-11-17T01:25:34.974Z,7.02
2022-11-17T01:26:27.325Z,6.99
2022-11-17T01:27:14.143Z,7.01
2022-11-17T01:28:01.001Z,7.08
2022-11-17T01:28:48.610Z,7.08
2022-11-17T01:29:35.614Z,7.06
2022-11-17T01:30:22.610Z,7.02
2022-11-17T01:31:12.710Z,7.02
2022-11-17T01:31:59.547Z,7.02
2022-11-17T01:32:46.419Z,7.06
2022-11-17T01:33:34.289Z,7.05
2022-11-17T01:34:21.550Z,7.05
2022-11-17T01:35:08.951Z,7.01
2022-11-17T01:35:56.030Z,7.00
2022-11-17T01:37:02.299Z,7.02
2022-11-17T01:37:49.182Z,7.11
2022-11-17T01:38:36.099Z,7.05
2022-11-17T01:39:27.123Z,7.04
2022-11-17T01:40:14.464Z,6.97
2022-11-17T01:41:02.949Z,6.92
2022-11-17T01:41:50.079Z,6.98
2022-11-17T01:42:36.941Z,7.00
2022-11-17T01:43:48.280Z,7.03
2022-11-17T01:44:55.459Z,7.07
2022-11-17T01:45:42.351Z,7.02
2022-11-17T01:46:32.780Z,7.01
2022-11-17T01:47:27.730Z,6.98
2022-11-17T01:48:15.500Z,7.02
2022-11-17T01:49:07.520Z,6.97
2022-11-17T01:50:20.660Z,6.92
2022-11-17T01:51:07.601Z,7.05
2022-11-17T01:52:03.402Z,7.12
2022-11-17T01:52:51.741Z,7.03
2022-11-17T01:53:39.421Z,7.03
2022-11-17T01:54:28.511Z,7.01
2022-11-17T01:55:15.603Z,6.99
2022-11-17T01:56:11.301Z,7.09
2022-11-17T01:57:01.651Z,7.09
2022-11-17T01:58:01.460Z,7.03
2022-11-17T01:58:54.833Z,7.05
2022-11-17T01:59:45.060Z,7.03
2022-11-17T02:00:31.958Z,7.06
2022-11-17T02:01:18.927Z,6.98
2022-11-17T02:02:06.112Z,7.01
2022-11-17T02:02:53.420Z,7.06
2022-11-17T02:03:40.449Z,7.01
2022-11-17T02:05:16.840Z,7.04
2022-11-17T02:06:10.880Z,7.06
2022-11-17T02:07:12.246Z,7.06
2022-11-17T02:08:02.666Z,7.00
2022-11-17T02:08:50.750Z,7.11
2022-11-17T02:09:39.144Z,7.06
2022-11-17T02:10:27.259Z,7.01
2022-11-17T02:11:17.839Z,7.01
2022-11-17T02:12:04.698Z,7.04
2022-11-17T02:12:53.629Z,7.07
2022-11-17T02:13:40.728Z,7.07
2022-11-17T02:14:27.799Z,7.03
2022-11-17T02:15:14.929Z,7.02
2022-11-17T02:16:01.788Z,7.02
2022-11-17T02:16:48.759Z,7.06
2022-11-17T02:17:39.219Z,7.06
2022-11-17T02:18:26.850Z,6.96
2022-11-17T02:19:15.820Z,7.00
2022-11-17T02:20:17.567Z,7.00
2022-11-17T02:21:39.653Z,7.04
2022-11-17T02:22:57.429Z,7.12
2022-11-17T02:24:25.201Z,7.13
2022-11-17T02:25:36.568Z,7.03
2022-11-17T02:26:57.749Z,7.06
2022-11-17T02:27:46.301Z,7.12
2022-11-17T02:28:35.230Z,7.06
2022-11-17T02:29:27.789Z,7.07
2022-11-17T02:30:17.432Z,7.15
2022-11-17T02:31:39.774Z,7.16
2022-11-17T02:32:35.089Z,7.22
2022-11-17T02:33:42.728Z,7.16
2022-11-17T02:35:15.928Z,7.19
2022-11-17T02:36:25.669Z,7.20
2022-11-17T02:37:29.459Z,7.21
2022-11-17T02:38:40.988Z,7.26
2022-11-17T02:39:50.339Z,7.27
2022-11-17T02:40:49.447Z,7.24
2022-11-17T02:41:47.958Z,7.21
2022-11-17T02:43:02.049Z,7.24
2022-11-17T02:44:19.018Z,7.21
2022-11-17T02:45:08.029Z,7.17
2022-11-17T02:46:01.323Z,7.22
2022-11-17T02:46:55.147Z,7.23
2022-11-17T02:47:42.927Z,7.23
2022-11-17T02:48:36.026Z,7.21
2022-11-17T02:49:34.698Z,7.22
2022-11-17T02:50:27.871Z,7.25
2022-11-17T02:51:19.518Z,7.21
2022-11-17T02:52:06.837Z,7.15
2022-11-17T02:52:53.689Z,7.19
2022-11-17T02:53:41.237Z,7.25
2022-11-17T02:54:30.040Z,7.27
2022-11-17T02:55:16.978Z,7.28
2022-11-17T02:56:04.088Z,7.32
2022-11-17T02:56:50.985Z,7.33
2022-11-17T02:57:40.467Z,7.30
2022-11-17T02:58:27.368Z,7.24
2022-11-17T02:59:16.668Z,7.24
2022-11-17T03:00:14.728Z,7.26
2022-11-17T03:01:47.347Z,7.31
2022-11-17T03:02:39.897Z,7.40
2022-11-17T03:03:54.199Z,7.34
2022-11-17T03:04:51.311Z,7.31
2022-11-17T03:05:50.228Z,7.36
2022-11-17T03:06:53.236Z,7.40
2022-11-17T03:08:09.798Z,7.41
2022-11-17T03:09:15.007Z,7.39
2022-11-17T03:10:27.410Z,7.36
2022-11-17T03:11:14.637Z,7.39
2022-11-17T03:12:14.288Z,7.40
2022-11-17T03:13:12.986Z,7.42
2022-11-17T03:14:20.039Z,7.49
2022-11-17T03:15:34.387Z,7.48
2022-11-17T03:16:33.586Z,7.40
2022-11-17T03:17:24.469Z,7.35
2022-11-17T03:18:19.368Z,7.36
2022-11-17T03:19:29.548Z,7.32
2022-11-17T03:20:47.358Z,7.37
2022-11-17T03:21:36.870Z,7.37
2022-11-17T03:22:45.527Z,7.34
2022-11-17T03:23:55.379Z,7.33
2022-11-17T03:24:53.638Z,7.35
2022-11-17T03:25:43.098Z,7.40
2022-11-17T03:26:36.037Z,7.41
2022-11-17T03:27:29.547Z,7.47
2022-11-17T03:28:18.164Z,7.38
2022-11-17T03:29:08.106Z,7.42
2022-11-17T03:30:01.127Z,7.49
2022-11-17T03:30:49.297Z,7.40
2022-11-17T03:31:37.887Z,7.44
2022-11-17T03:32:25.077Z,7.44
2022-11-17T03:33:16.433Z,7.42
2022-11-17T03:34:06.507Z,7.35
2022-11-17T03:34:56.889Z,7.37
2022-11-17T03:35:50.949Z,7.40
2022-11-17T03:36:41.468Z,7.44
2022-11-17T03:37:31.928Z,7.45
2022-11-17T03:38:19.948Z,7.40
2022-11-17T03:39:28.106Z,7.43
2022-11-17T03:40:19.275Z,7.40
2022-11-17T03:41:07.560Z,7.34
2022-11-17T03:41:59.906Z,7.39
2022-11-17T03:42:52.888Z,7.42
2022-11-17T03:43:41.387Z,7.43
2022-11-17T03:44:30.041Z,7.49
2022-11-17T03:45:21.100Z,7.43
2022-11-17T03:46:11.041Z,7.42
2022-11-17T03:46:59.399Z,7.45
2022-11-17T03:47:47.029Z,7.49
2022-11-17T03:48:49.486Z,7.47
2022-11-17T03:49:40.236Z,7.51
2022-11-17T03:50:37.260Z,7.49
2022-11-17T03:51:26.414Z,7.42
2022-11-17T03:52:13.447Z,7.44
2022-11-17T03:53:02.459Z,7.40
2022-11-17T03:53:50.036Z,7.40
2022-11-17T03:54:37.187Z,7.33
2022-11-17T03:55:27.906Z,7.39
2022-11-17T03:56:33.507Z,7.36
2022-11-17T03:57:40.984Z,7.36
2022-11-17T03:58:30.354Z,7.33
2022-11-17T03:59:47.939Z,7.33
2022-11-17T04:00:35.378Z,7.28
2022-11-17T04:01:23.288Z,7.34
2022-11-17T04:02:15.467Z,7.33
2022-11-17T04:03:02.399Z,7.30
2022-11-17T04:03:49.478Z,7.32
2022-11-17T04:04:54.936Z,7.30
2022-11-17T04:05:41.977Z,7.29
2022-11-17T04:06:28.876Z,7.26
2022-11-17T04:07:15.737Z,7.21
2022-11-17T04:08:02.638Z,7.22
2022-11-17T04:08:50.038Z,7.28
2022-11-17T04:09:36.966Z,7.33
2022-11-17T04:10:25.996Z,7.36
2022-11-17T04:11:31.728Z,7.31
2022-11-17T04:12:37.324Z,7.32
2022-11-17T04:13:42.975Z,7.33
2022-11-17T04:14:48.606Z,7.31
2022-11-17T04:15:54.348Z,7.39
2022-11-17T04:16:41.248Z,7.37
2022-11-17T04:17:28.167Z,7.45
2022-11-17T04:18:15.618Z,7.36
2022-11-17T04:19:02.518Z,7.45
2022-11-17T04:19:49.298Z,7.41
2022-11-17T04:20:36.241Z,7.34
2022-11-17T04:21:23.057Z,7.35
2022-11-17T04:22:10.040Z,7.36
2022-11-17T04:23:09.455Z,7.35
2022-11-17T04:23:58.107Z,7.26
2022-11-17T04:24:44.926Z,7.25
2022-11-17T04:25:58.227Z,7.27
2022-11-17T04:27:03.949Z,7.24
2022-11-17T04:28:09.526Z,7.28
2022-11-17T04:28:56.469Z,7.29
2022-11-17T04:29:43.417Z,7.41
2022-11-17T04:30:30.306Z,7.41
2022-11-17T04:31:22.872Z,7.30
2022-11-17T04:32:09.756Z,7.29
2022-11-17T04:32:56.558Z,7.29
2022-11-17T04:33:46.968Z,7.32
2022-11-17T04:34:33.821Z,7.32
2022-11-17T04:35:20.636Z,7.27
2022-11-17T04:36:08.097Z,7.27
2022-11-17T04:36:54.958Z,7.34
2022-11-17T04:37:41.787Z,7.37
2022-11-17T04:38:28.729Z,7.34
2022-11-17T04:39:16.337Z,7.37
2022-11-17T04:40:03.518Z,7.41
2022-11-17T04:41:08.817Z,7.44
2022-11-17T04:41:57.661Z,7.44
2022-11-17T04:42:44.555Z,7.41
2022-11-17T04:43:31.574Z,7.47
2022-11-17T04:44:18.626Z,7.47
2022-11-17T04:45:05.986Z,7.45
2022-11-17T04:45:52.877Z,7.49
2022-11-17T04:46:40.657Z,7.51
2022-11-17T04:47:27.628Z,7.51
2022-11-17T04:48:14.549Z,7.52
2022-11-17T04:49:02.046Z,7.54
2022-11-17T04:49:49.018Z,7.49
2022-11-17T04:50:35.977Z,7.45
2022-11-17T04:51:23.844Z,7.41
2022-11-17T04:52:10.787Z,7.46
2022-11-17T04:52:58.136Z,7.43
2022-11-17T04:53:45.568Z,7.45
2022-11-17T04:54:32.548Z,7.49
2022-11-17T04:55:19.416Z,7.52
2022-11-17T04:56:06.647Z,7.56
2022-11-17T04:56:54.607Z,7.53
2022-11-17T04:57:41.499Z,7.56
2022-11-17T04:58:28.676Z,7.63
2022-11-17T04:59:15.497Z,7.62
2022-11-17T05:00:02.490Z,7.64
2022-11-17T05:00:49.428Z,7.63
2022-11-17T05:01:36.848Z,7.56
2022-11-17T05:02:24.045Z,7.57
2022-11-17T05:03:10.907Z,7.58
2022-11-17T05:03:59.946Z,7.60
2022-11-17T05:04:58.767Z,7.63
2022-11-17T05:05:46.997Z,7.61
2022-11-17T05:06:39.479Z,7.54
2022-11-17T05:07:26.377Z,7.58
2022-11-17T05:08:13.938Z,7.53
2022-11-17T05:09:12.442Z,7.58
2022-11-17T05:09:59.409Z,7.61
2022-11-17T05:11:04.873Z,7.63
2022-11-17T05:12:10.639Z,7.61
2022-11-17T05:13:16.068Z,7.59
2022-11-17T05:14:03.722Z,7.64
2022-11-17T05:14:50.693Z,7.71
2022-11-17T05:15:56.168Z,7.66
2022-11-17T05:17:08.461Z,7.65
2022-11-17T05:17:56.147Z,7.68
2022-11-17T05:18:43.847Z,7.62
2022-11-17T05:19:35.597Z,7.62
2022-11-17T05:20:22.510Z,7.58
2022-11-17T05:21:11.247Z,7.56
2022-11-17T05:21:58.069Z,7.61
2022-11-17T05:23:06.887Z,7.61
2022-11-17T05:23:56.688Z,7.72
2022-11-17T05:24:43.657Z,7.73
2022-11-17T05:25:30.559Z,7.65
2022-11-17T05:26:17.987Z,7.66
2022-11-17T05:27:04.819Z,7.72
2022-11-17T05:27:53.723Z,7.67
2022-11-17T05:28:40.808Z,7.68
2022-11-17T05:29:27.757Z,7.71
2022-11-17T05:30:15.110Z,7.71
2022-11-17T05:31:01.978Z,7.67
2022-11-17T05:31:49.338Z,7.70
2022-11-17T05:32:36.283Z,7.71
2022-11-17T05:33:23.358Z,7.68
2022-11-17T05:34:12.899Z,7.71
2022-11-17T05:34:59.899Z,7.71
2022-11-17T05:35:46.759Z,7.75
2022-11-17T05:36:34.136Z,7.72
2022-11-17T05:37:21.189Z,7.73
2022-11-17T05:38:08.087Z,7.69
2022-11-17T05:38:55.387Z,7.67
2022-11-17T05:39:42.472Z,7.64
2022-11-17T05:40:29.519Z,7.66
2022-11-17T05:41:17.178Z,7.67
2022-11-17T05:42:04.160Z,7.64
2022-11-17T05:42:55.873Z,7.57
2022-11-17T05:43:44.691Z,7.65
2022-11-17T05:44:31.606Z,7.58
2022-11-17T05:45:18.421Z,7.57
2022-11-17T05:46:05.418Z,7.55
2022-11-17T05:46:52.260Z,7.59
2022-11-17T05:47:39.119Z,7.63
2022-11-17T05:48:26.049Z,7.62
2022-11-17T05:49:12.927Z,7.65
2022-11-17T05:49:59.788Z,7.62
2022-11-17T05:50:46.799Z,7.57
2022-11-17T05:51:33.797Z,7.52
2022-11-17T05:52:20.629Z,7.53
2022-11-17T05:53:07.498Z,7.49
2022-11-17T05:53:54.378Z,7.41
2022-11-17T05:54:41.257Z,7.47
2022-11-17T05:55:28.187Z,7.48
2022-11-17T05:56:33.639Z,7.48
2022-11-17T05:57:25.793Z,7.47
2022-11-17T05:58:27.248Z,7.48
2022-11-17T05:59:39.523Z,7.47
2022-11-17T06:00:26.428Z,7.41
2022-11-17T06:01:14.652Z,7.40
2022-11-17T06:02:11.597Z,7.52
2022-11-17T06:03:01.117Z,7.53
2022-11-17T06:03:52.127Z,7.54
2022-11-17T06:04:39.801Z,7.50
2022-11-17T06:05:26.809Z,7.49
2022-11-17T06:06:14.029Z,7.48
2022-11-17T06:07:01.412Z,7.47
2022-11-17T06:07:48.968Z,7.46
2022-11-17T06:08:37.045Z,7.50
2022-11-17T06:09:24.049Z,7.49
2022-11-17T06:10:11.112Z,7.41
2022-11-17T06:10:58.007Z,7.46
2022-11-17T06:11:44.907Z,7.49
2022-11-17T06:12:31.900Z,7.60
2022-11-17T06:13:22.235Z,7.61
2022-11-17T06:14:09.179Z,7.54
2022-11-17T06:14:56.049Z,7.57
2022-11-17T06:15:42.979Z,7.58
2022-11-17T06:16:32.019Z,7.59
2022-11-17T06:17:26.973Z,7.55
2022-11-17T06:18:16.589Z,7.57
2022-11-17T06:19:15.131Z,7.54
2022-11-17T06:20:07.531Z,7.54
2022-11-17T06:20:54.959Z,7.51
2022-11-17T06:22:09.988Z,7.43
2022-11-17T06:22:49.158Z,7.46
2022-11-17T06:23:37.195Z,7.42
2022-11-17T06:24:24.609Z,7.43
2022-11-17T06:25:11.831Z,7.41
2022-11-17T06:26:00.876Z,7.45
2022-11-17T06:26:47.771Z,7.45
2022-11-17T06:27:35.457Z,7.46
2022-11-17T06:28:22.888Z,7.51
2022-11-17T06:29:11.269Z,7.55
2022-11-17T06:30:00.538Z,7.54
2022-11-17T06:30:47.818Z,7.49
2022-11-17T06:31:34.723Z,7.51
2022-11-17T06:32:21.912Z,7.56
2022-11-17T06:33:10.917Z,7.61
2022-11-17T06:33:57.808Z,7.61
2022-11-17T06:34:49.140Z,7.58
2022-11-17T06:35:37.529Z,7.60
2022-11-17T06:36:25.019Z,7.65
2022-11-17T06:37:12.380Z,7.62
2022-11-17T06:38:00.292Z,7.66
2022-11-17T06:38:47.238Z,7.70
2022-11-17T06:39:34.230Z,7.68
2022-11-17T06:40:21.132Z,7.69
2022-11-17T06:41:11.858Z,7.71
2022-11-17T06:41:59.111Z,7.75
2022-11-17T06:43:06.858Z,7.81
2022-11-17T06:43:53.815Z,7.86
2022-11-17T06:44:40.703Z,7.77
2022-11-17T06:45:27.967Z,7.74
2022-11-17T06:46:14.878Z,7.74
2022-11-17T06:47:02.803Z,7.74
2022-11-17T06:47:49.659Z,7.75
2022-11-17T06:48:36.905Z,7.73
2022-11-17T06:49:23.988Z,7.66
2022-11-17T06:50:11.055Z,7.66
2022-11-17T06:50:58.030Z,7.72
2022-11-17T06:51:45.529Z,7.74
2022-11-17T06:52:32.720Z,7.82
2022-11-17T06:53:19.809Z,7.88
2022-11-17T06:54:09.136Z,7.90
2022-11-17T06:54:56.208Z,7.96
2022-11-17T06:55:43.298Z,7.98
2022-11-17T06:56:30.530Z,8.00
2022-11-17T06:57:17.500Z,7.98
2022-11-17T06:58:09.073Z,8.02
2022-11-17T06:58:56.876Z,8.02
2022-11-17T06:59:43.762Z,8.00
2022-11-17T07:00:31.185Z,8.03
2022-11-17T07:01:18.366Z,8.08
2022-11-17T07:02:05.320Z,8.10
2022-11-17T07:02:52.508Z,8.10
2022-11-17T07:03:40.970Z,8.13
2022-11-17T07:04:27.931Z,8.18
2022-11-17T07:05:15.038Z,8.07
2022-11-17T07:06:03.149Z,8.12
2022-11-17T07:06:50.313Z,8.22
2022-11-17T07:07:37.365Z,8.18
2022-11-17T07:08:24.359Z,8.18
2022-11-17T07:09:11.200Z,8.23
2022-11-17T07:09:58.182Z,8.28
2022-11-17T07:10:49.293Z,8.26
2022-11-17T07:11:36.649Z,8.26
2022-11-17T07:12:23.621Z,8.30
2022-11-17T07:13:10.529Z,8.33
2022-11-17T07:13:58.430Z,8.22
2022-11-17T07:14:45.299Z,8.30
2022-11-17T07:15:32.314Z,8.33
2022-11-17T07:16:23.992Z,8.37
2022-11-17T07:17:11.159Z,8.36
2022-11-17T07:17:58.874Z,8.39
2022-11-17T07:18:45.881Z,8.39
2022-11-17T07:19:32.791Z,8.41
2022-11-17T07:20:19.881Z,8.49
2022-11-17T07:21:08.493Z,8.45
2022-11-17T07:21:55.504Z,8.54
2022-11-17T07:22:42.600Z,8.52
2022-11-17T07:23:30.050Z,8.50
2022-11-17T07:24:16.902Z,8.53
2022-11-17T07:25:05.073Z,8.46
2022-11-17T07:25:53.510Z,8.51
2022-11-17T07:26:40.657Z,8.52
2022-11-17T07:27:27.760Z,8.56
2022-11-17T07:28:15.241Z,8.58
2022-11-17T07:29:02.317Z,8.51
2022-11-17T07:29:49.231Z,8.57
2022-11-17T07:30:36.453Z,8.55
2022-11-17T07:31:23.599Z,8.70
2022-11-17T07:32:14.073Z,8.76
2022-11-17T07:33:03.793Z,8.68
2022-11-17T07:33:50.979Z,8.72
2022-11-17T07:34:37.920Z,8.66
2022-11-17T07:35:25.049Z,8.61
2022-11-17T07:36:14.829Z,8.62
2022-11-17T07:37:01.690Z,8.63
2022-11-17T07:37:48.720Z,8.72
2022-11-17T07:38:36.438Z,8.70
2022-11-17T07:39:23.631Z,8.71
2022-11-17T07:40:11.009Z,8.74
2022-11-17T07:40:59.548Z,8.83
2022-11-17T07:41:46.469Z,8.87
2022-11-17T07:42:33.405Z,8.87
2022-11-17T07:43:20.261Z,8.85
2022-11-17T07:44:07.392Z,8.86
2022-11-17T07:44:54.500Z,8.96
2022-11-17T07:45:41.489Z,9.05
2022-11-17T07:46:28.429Z,8.92
2022-11-17T07:47:15.539Z,8.91
2022-11-17T07:48:04.200Z,8.95
2022-11-17T07:48:55.089Z,8.98
2022-11-17T07:49:41.990Z,9.14
2022-11-17T07:50:29.762Z,9.23
2022-11-17T07:51:17.691Z,9.29
2022-11-17T07:52:04.778Z,9.28
2022-11-17T07:52:52.850Z,9.28
2022-11-17T07:53:39.760Z,9.32
2022-11-17T07:54:26.640Z,9.36
2022-11-17T07:55:13.640Z,9.34
2022-11-17T07:56:08.379Z,9.37
2022-11-17T07:56:55.420Z,9.37
2022-11-17T07:57:42.269Z,9.39
2022-11-17T07:58:30.280Z,9.48
2022-11-17T07:59:21.129Z,9.55
2022-11-17T08:00:09.019Z,9.54
2022-11-17T08:00:56.088Z,9.57
2022-11-17T08:01:43.218Z,9.59
2022-11-17T08:02:30.191Z,9.67
2022-11-17T08:03:17.131Z,9.70
2022-11-17T08:04:04.291Z,9.71
2022-11-17T08:04:51.189Z,9.77
2022-11-17T08:05:43.238Z,9.77
2022-11-17T08:06:30.939Z,9.83
2022-11-17T08:07:18.016Z,9.82
2022-11-17T08:08:05.978Z,9.77
2022-11-17T08:08:53.789Z,9.87
2022-11-17T08:09:40.840Z,9.79
2022-11-17T08:10:31.490Z,9.76
2022-11-17T08:11:19.579Z,9.91
2022-11-17T08:12:06.709Z,9.99
2022-11-17T08:12:54.950Z,10.06
2022-11-17T08:13:41.940Z,10.04
2022-11-17T08:14:29.950Z,10.10
2022-11-17T08:15:17.235Z,10.04
2022-11-17T08:16:04.566Z,10.10
2022-11-17T08:16:51.487Z,10.10
2022-11-17T08:17:38.478Z,10.15
2022-11-17T08:18:26.191Z,10.05
2022-11-17T08:19:14.519Z,10.13
2022-11-17T08:20:01.423Z,10.11
2022-11-17T08:20:48.289Z,10.14
2022-11-17T08:21:37.091Z,10.06
2022-11-17T08:22:24.347Z,10.19
2022-11-17T08:23:11.246Z,10.27
2022-11-17T08:23:58.394Z,10.24
2022-11-17T08:24:45.247Z,10.33
2022-11-17T08:25:32.234Z,10.41
2022-11-17T08:26:21.039Z,10.46
2022-11-17T08:27:07.932Z,10.43
2022-11-17T08:27:56.334Z,10.45
2022-11-17T08:28:43.230Z,10.35
2022-11-17T08:29:30.132Z,10.31
2022-11-17T08:30:17.247Z,10.40
2022-11-17T08:31:05.810Z,10.38
2022-11-17T08:31:52.755Z,10.17
2022-11-17T08:32:39.775Z,10.21
2022-11-17T08:33:26.588Z,10.26
2022-11-17T08:34:13.679Z,10.30
2022-11-17T08:35:00.618Z,10.27
2022-11-17T08:35:47.538Z,10.24
2022-11-17T08:36:34.489Z,10.25
2022-11-17T08:37:21.468Z,10.23
2022-11-17T08:38:11.755Z,10.14
2022-11-17T08:38:58.678Z,10.15
2022-11-17T08:39:45.610Z,9.98
2022-11-17T08:40:32.859Z,9.86
2022-11-17T08:41:20.035Z,9.96
2022-11-17T08:42:06.987Z,9.96
2022-11-17T08:43:00.992Z,9.93
2022-11-17T08:43:48.509Z,9.72
2022-11-17T08:44:35.402Z,9.59
2022-11-17T08:45:22.479Z,9.35
2022-11-17T08:46:12.848Z,9.42
2022-11-17T08:46:59.818Z,9.45
2022-11-17T08:47:46.854Z,9.45
2022-11-17T08:48:34.030Z,9.37
2022-11-17T08:49:21.111Z,9.31
2022-11-17T08:50:09.059Z,9.30
2022-11-17T08:50:56.310Z,9.27
2022-11-17T08:51:43.232Z,9.25
2022-11-17T08:52:30.239Z,9.29
2022-11-17T08:53:19.286Z,9.32
2022-11-17T08:54:06.202Z,9.30
2022-11-17T08:54:53.260Z,9.30
2022-11-17T08:55:41.401Z,9.33
2022-11-17T08:56:28.534Z,9.41
2022-11-17T08:57:15.457Z,9.37
2022-11-17T08:58:04.258Z,9.34
2022-11-17T08:58:51.341Z,9.30
2022-11-17T08:59:38.288Z,9.25
2022-11-17T09:00:25.271Z,9.23
2022-11-17T09:01:16.035Z,9.25
2022-11-17T09:02:03.341Z,9.23
2022-11-17T09:02:50.339Z,9.25
2022-11-17T09:03:37.788Z,9.22
2022-11-17T09:04:24.758Z,9.30
2022-11-17T09:05:11.988Z,9.28
2022-11-17T09:06:00.400Z,9.25
2022-11-17T09:06:47.303Z,9.26
2022-11-17T09:07:35.103Z,9.29
2022-11-17T09:08:44.499Z,9.32
2022-11-17T09:09:31.010Z,9.37
2022-11-17T09:10:17.958Z,9.33
2022-11-17T09:11:09.040Z,9.34
2022-11-17T09:11:56.028Z,9.33
2022-11-17T09:12:43.545Z,9.34
2022-11-17T09:13:31.659Z,9.38
2022-11-17T09:14:18.606Z,9.53
2022-11-17T09:15:06.302Z,9.52
2022-11-17T09:15:53.240Z,9.54
2022-11-17T09:16:40.128Z,9.55
2022-11-17T09:17:27.119Z,9.58
2022-11-17T09:18:14.208Z,9.46
2022-11-17T09:19:01.198Z,9.51
2022-11-17T09:19:48.106Z,9.54
2022-11-17T09:20:35.242Z,9.48
2022-11-17T09:21:22.342Z,9.45
2022-11-17T09:22:09.349Z,9.48
2022-11-17T09:22:59.761Z,9.45
2022-11-17T09:23:46.740Z,9.50
2022-11-17T09:24:33.730Z,9.58
2022-11-17T09:25:20.603Z,9.56
2022-11-17T09:26:10.520Z,9.54
2022-11-17T09:26:57.739Z,9.61
2022-11-17T09:27:44.837Z,9.67
2022-11-17T09:28:32.418Z,9.69
2022-11-17T09:29:20.769Z,9.72
2022-11-17T09:30:11.809Z,9.71
2022-11-17T09:31:00.382Z,9.78
2022-11-17T09:31:48.394Z,9.84
2022-11-17T09:32:35.948Z,9.82
2022-11-17T09:34:21.880Z,9.90
2022-11-17T09:35:09.716Z,9.97
2022-11-17T09:35:59.827Z,9.90
2022-11-17T09:36:49.277Z,9.98
2022-11-17T09:37:36.548Z,10.07
2022-11-17T09:38:23.517Z,10.13
2022-11-17T09:39:10.451Z,10.22
2022-11-17T09:39:57.426Z,10.20
2022-11-17T09:40:44.505Z,10.30
2022-11-17T09:41:44.377Z,10.27
2022-11-17T09:42:31.395Z,10.37
2022-11-17T09:43:34.396Z,10.48
2022-11-17T09:44:40.515Z,10.55
2022-11-17T09:45:38.164Z,10.69
2022-11-17T09:47:03.380Z,10.70
2022-11-17T09:48:33.387Z,10.67
2022-11-17T09:49:19.419Z,10.70
2022-11-17T09:50:18.383Z,10.59
2022-11-17T09:51:08.977Z,10.68
2022-11-17T09:51:58.909Z,10.72
2022-11-17T09:52:49.383Z,10.82
2022-11-17T09:53:43.970Z,10.79
2022-11-17T09:54:41.236Z,10.72
2022-11-17T09:55:37.323Z,10.73
2022-11-17T09:56:26.659Z,10.68
2022-11-17T09:57:21.299Z,10.71
2022-11-17T09:58:46.664Z,10.64
2022-11-17T09:59:34.160Z,10.64
2022-11-17T10:00:22.597Z,10.56
2022-11-17T10:01:19.998Z,10.63
2022-11-17T10:02:10.571Z,10.69
2022-11-17T10:02:57.757Z,10.67
2022-11-17T10:03:48.124Z,10.64
2022-11-17T10:04:35.225Z,10.63
2022-11-17T10:05:28.366Z,10.67
2022-11-17T10:06:18.216Z,10.62
2022-11-17T10:07:05.203Z,10.62
2022-11-17T10:07:54.725Z,10.70
2022-11-17T10:08:59.227Z,10.67
2022-11-17T10:09:47.268Z,10.63
2022-11-17T10:10:36.428Z,10.68
2022-11-17T10:11:32.710Z,10.60
2022-11-17T10:12:26.146Z,10.70
2022-11-17T10:13:24.639Z,10.59
2022-11-17T10:14:17.924Z,10.54
2022-11-17T10:15:24.914Z,10.58
2022-11-17T10:16:14.434Z,10.71
2022-11-17T10:17:01.386Z,10.76
2022-11-17T10:17:48.384Z,10.78
2022-11-17T10:18:38.242Z,10.82
2022-11-17T10:19:29.796Z,10.79
2022-11-17T10:20:19.071Z,10.86
2022-11-17T10:21:07.170Z,10.93
2022-11-17T10:22:03.105Z,10.97
2022-11-17T10:22:50.670Z,11.00
2022-11-17T10:23:46.202Z,10.99
2022-11-17T10:24:39.347Z,11.06
2022-11-17T10:25:38.996Z,11.04
2022-11-17T10:26:26.614Z,11.16
2022-11-17T10:27:25.565Z,11.20
2022-11-17T10:28:30.955Z,11.20
2022-11-17T10:29:23.597Z,11.22
2022-11-17T10:30:19.730Z,11.21
2022-11-17T10:31:15.409Z,11.21
2022-11-17T10:32:03.826Z,11.30
2022-11-17T10:32:53.518Z,11.24
2022-11-17T10:33:42.288Z,11.16
2022-11-17T10:34:41.449Z,11.20
2022-11-17T10:35:31.864Z,11.21
2022-11-17T10:36:24.576Z,11.32
2022-11-17T10:37:14.456Z,11.42
2022-11-17T10:38:17.520Z,11.44
2022-11-17T10:39:04.926Z,11.48
2022-11-17T10:40:07.326Z,11.52
2022-11-17T10:40:54.645Z,11.47
2022-11-17T10:41:43.258Z,11.57
2022-11-17T10:42:30.329Z,11.65
2022-11-17T10:43:35.298Z,11.73
2022-11-17T10:44:25.626Z,11.75
2022-11-17T10:45:17.495Z,11.72
2022-11-17T10:46:07.116Z,11.69
2022-11-17T10:47:02.794Z,11.71
2022-11-17T10:47:50.327Z,11.81
2022-11-17T10:48:38.913Z,11.95
2022-11-17T10:49:27.986Z,12.01
2022-11-17T10:50:28.176Z,12.07
2022-11-17T10:51:19.818Z,11.90
2022-11-17T10:52:09.391Z,11.91
2022-11-17T10:53:23.045Z,11.99
2022-11-17T10:54:15.781Z,12.08
2022-11-17T10:55:41.647Z,12.14
2022-11-17T10:56:29.739Z,12.10
2022-11-17T10:57:24.048Z,12.22
2022-11-17T10:58:30.674Z,12.24
2022-11-17T10:59:42.254Z,12.35
2022-11-17T11:00:37.229Z,12.47
2022-11-17T11:01:36.791Z,12.52
2022-11-17T11:02:38.079Z,12.45
2022-11-17T11:03:32.927Z,12.54
2022-11-17T11:04:42.081Z,12.56
2022-11-17T11:05:29.148Z,12.53
2022-11-17T11:06:24.305Z,12.62
2022-11-17T11:07:20.198Z,12.70
2022-11-17T11:08:22.767Z,12.75
2022-11-17T11:09:17.805Z,12.72
2022-11-17T11:10:08.017Z,12.78
2022-11-17T11:10:56.047Z,12.85
2022-11-17T11:11:45.901Z,12.67
2022-11-17T11:12:42.006Z,12.53
2022-11-17T11:13:37.951Z,12.50
2022-11-17T11:14:47.047Z,12.43
2022-11-17T11:15:35.713Z,12.27
2022-11-17T11:16:24.376Z,12.09
2022-11-17T11:17:13.354Z,12.26